createdAt,value
2018-07-16T00:00:43.717Z,3.17
2018-07-16T00:03:12.930Z,3.67
2018-07-16T00:05:42.087Z,3.80
2018-07-16T00:08:11.480Z,4.63
2018-07-16T00:10:40.755Z,4.43
2018-07-16T00:13:10.059Z,4.30
2018-07-16T00:15:39.426Z,4.20
2018-07-16T00:18:08.657Z,4.00
2018-07-16T00:20:37.948Z,4.80
2018-07-16T00:23:07.329Z,3.80
2018-07-16T00:25:36.488Z,3.20
2018-07-16T00:28:05.958Z,3.87
2018-07-16T00:30:35.201Z,4.43
2018-07-16T00:33:04.472Z,7.60
2018-07-16T00:35:33.794Z,5.80
2018-07-16T00:38:03.037Z,6.20
2018-07-16T00:40:32.211Z,3.70
2018-07-16T00:43:01.462Z,7.03
2018-07-16T00:45:30.685Z,4.57
2018-07-16T00:47:59.985Z,5.73
2018-07-16T00:50:29.267Z,6.07
2018-07-16T00:52:58.560Z,4.90
2018-07-16T00:55:27.819Z,5.13
2018-07-16T00:57:57.058Z,3.80
2018-07-16T01:00:26.218Z,4.47
2018-07-16T01:02:55.473Z,4.20
2018-07-16T01:05:24.718Z,4.27
2018-07-16T01:07:53.959Z,4.30
2018-07-16T01:10:23.221Z,4.50
2018-07-16T01:12:52.553Z,4.70
2018-07-16T01:15:21.822Z,4.50
2018-07-16T01:17:51.074Z,5.97
2018-07-16T01:20:20.389Z,5.10
2018-07-16T01:22:49.641Z,7.17
2018-07-16T01:25:19.018Z,4.70
2018-07-16T01:27:48.301Z,4.90
2018-07-16T01:30:17.521Z,4.47
2018-07-16T01:32:46.766Z,4.03
2018-07-16T01:35:16.043Z,4.10
2018-07-16T01:37:45.549Z,4.17
2018-07-16T01:40:14.855Z,5.37
2018-07-16T01:42:44.307Z,4.40
2018-07-16T01:45:13.507Z,4.10
2018-07-16T01:47:42.777Z,5.20
2018-07-16T01:50:12.027Z,5.33
2018-07-16T01:52:41.478Z,4.67
2018-07-16T01:55:10.971Z,4.33
2018-07-16T01:57:40.274Z,4.30
2018-07-16T02:00:09.532Z,3.77
2018-07-16T02:02:38.842Z,4.70
2018-07-16T02:05:07.909Z,3.83
2018-07-16T02:07:37.214Z,4.60
2018-07-16T02:10:06.487Z,4.30
2018-07-16T02:12:35.823Z,5.13
2018-07-16T02:15:05.047Z,4.63
2018-07-16T02:17:34.665Z,4.90
2018-07-16T02:20:05.606Z,4.30
2018-07-16T02:22:35.107Z,4.30
2018-07-16T02:25:04.418Z,4.17
2018-07-16T02:27:33.782Z,4.30
2018-07-16T02:30:03.128Z,5.17
2018-07-16T02:32:32.485Z,4.27
2018-07-16T02:35:01.825Z,4.00
2018-07-16T02:37:31.082Z,6.33
2018-07-16T02:40:00.428Z,5.30
2018-07-16T02:42:29.887Z,6.73
2018-07-16T02:44:59.224Z,5.47
2018-07-16T02:47:28.406Z,4.30
2018-07-16T02:49:57.629Z,4.50
2018-07-16T02:52:27.000Z,4.60
2018-07-16T02:54:56.455Z,3.70
2018-07-16T02:57:25.810Z,4.53
2018-07-16T02:59:54.923Z,4.17
2018-07-16T03:02:24.294Z,4.90
2018-07-16T03:04:53.565Z,3.93
2018-07-16T03:07:22.833Z,5.23
2018-07-16T03:09:52.127Z,4.90
2018-07-16T03:12:21.498Z,4.07
2018-07-16T03:14:50.854Z,5.00
2018-07-16T03:17:20.094Z,5.70
2018-07-16T03:19:49.413Z,4.27
2018-07-16T03:22:18.591Z,5.03
2018-07-16T03:24:47.954Z,3.90
2018-07-16T03:27:17.315Z,6.90
2018-07-16T03:29:46.533Z,5.13
2018-07-16T03:32:15.834Z,4.10
2018-07-16T03:34:45.253Z,5.07
2018-07-16T03:37:14.522Z,4.00
2018-07-16T03:39:43.851Z,5.37
2018-07-16T03:42:13.111Z,4.30
2018-07-16T03:44:42.509Z,5.33
2018-07-16T03:47:11.902Z,4.47
2018-07-16T03:49:41.255Z,4.57
2018-07-16T03:52:10.770Z,5.33
2018-07-16T03:54:40.075Z,4.67
2018-07-16T03:57:09.766Z,5.20
2018-07-16T03:59:39.472Z,4.50
2018-07-16T04:02:08.850Z,4.83
2018-07-16T04:04:38.082Z,4.30
2018-07-16T04:07:07.635Z,4.90
2018-07-16T04:09:36.861Z,4.33
2018-07-16T04:12:06.256Z,5.17
2018-07-16T04:14:35.483Z,4.00
2018-07-16T04:17:04.737Z,6.07
2018-07-16T04:19:34.079Z,5.30
2018-07-16T04:22:03.385Z,5.13
2018-07-16T04:24:32.732Z,7.17
2018-07-16T04:27:02.060Z,3.93
2018-07-16T04:29:31.308Z,4.83
2018-07-16T04:32:00.675Z,4.67
2018-07-16T04:34:30.008Z,7.07
2018-07-16T04:36:59.191Z,4.37
2018-07-16T04:39:28.486Z,5.60
2018-07-16T04:41:57.846Z,4.83
2018-07-16T04:44:27.114Z,7.63
2018-07-16T04:46:56.340Z,4.50
2018-07-16T04:49:25.593Z,4.87
2018-07-16T04:51:54.854Z,4.73
2018-07-16T04:54:24.200Z,4.87
2018-07-16T04:56:53.487Z,4.40
2018-07-16T04:59:22.994Z,4.70
2018-07-16T05:01:52.343Z,7.83
2018-07-16T05:04:21.713Z,3.80
2018-07-16T05:06:50.942Z,6.30
2018-07-16T05:09:20.204Z,4.37
2018-07-16T05:11:49.484Z,4.37
2018-07-16T05:14:18.817Z,5.00
2018-07-16T05:16:50.023Z,8.73
2018-07-16T05:19:19.441Z,4.77
2018-07-16T05:21:48.822Z,4.70
2018-07-16T05:24:18.471Z,4.73
2018-07-16T05:26:47.642Z,4.73
2018-07-16T05:29:16.970Z,4.60
2018-07-16T05:31:46.461Z,5.10
2018-07-16T05:34:15.805Z,4.93
2018-07-16T05:36:45.069Z,5.77
2018-07-16T05:39:14.253Z,4.70
2018-07-16T05:41:43.566Z,6.30
2018-07-16T05:44:13.026Z,5.07
2018-07-16T05:46:42.489Z,6.03
2018-07-16T05:49:12.340Z,4.63
2018-07-16T05:51:41.680Z,7.40
2018-07-16T05:54:11.286Z,6.03
2018-07-16T05:56:40.913Z,6.40
2018-07-16T05:59:10.074Z,5.60
2018-07-16T06:01:39.320Z,6.03
2018-07-16T06:04:08.701Z,5.33
2018-07-16T06:06:38.207Z,4.30
2018-07-16T06:09:07.938Z,5.57
2018-07-16T06:11:38.060Z,5.40
2018-07-16T06:14:07.455Z,5.50
2018-07-16T06:16:37.256Z,5.63
2018-07-16T06:19:06.950Z,5.87
2018-07-16T06:21:36.390Z,5.20
2018-07-16T06:24:05.898Z,5.47
2018-07-16T06:26:35.238Z,5.27
2018-07-16T06:29:04.526Z,4.77
2018-07-16T06:31:34.026Z,5.80
2018-07-16T06:34:03.340Z,5.40
2018-07-16T06:36:32.795Z,4.90
2018-07-16T06:39:08.336Z,5.70
2018-07-16T06:41:37.923Z,5.03
2018-07-16T06:44:07.591Z,5.00
2018-07-16T06:46:36.869Z,5.80
2018-07-16T06:49:06.127Z,4.80
2018-07-16T06:51:35.468Z,4.83
2018-07-16T06:54:05.022Z,4.87
2018-07-16T06:56:34.446Z,5.37
2018-07-16T06:59:04.326Z,6.10
2018-07-16T07:01:33.586Z,4.30
2018-07-16T07:04:02.842Z,5.83
2018-07-16T07:06:33.476Z,4.43
2018-07-16T07:09:02.815Z,5.10
2018-07-16T07:11:32.211Z,4.80
2018-07-16T07:14:01.482Z,5.93
2018-07-16T07:16:31.406Z,5.20
2018-07-16T07:19:00.913Z,5.03
2018-07-16T07:21:30.230Z,4.67
2018-07-16T07:23:59.535Z,5.90
2018-07-16T07:26:29.161Z,5.13
2018-07-16T07:28:58.388Z,6.30
2018-07-16T07:31:27.737Z,4.23
2018-07-16T07:33:57.743Z,5.20
2018-07-16T07:36:27.064Z,4.03
2018-07-16T07:38:56.423Z,5.37
2018-07-16T07:41:25.627Z,4.10
2018-07-16T07:43:55.055Z,3.97
2018-07-16T07:46:24.465Z,4.47
2018-07-16T07:48:53.730Z,4.73
2018-07-16T07:51:23.058Z,6.60
2018-07-16T07:53:52.398Z,4.27
2018-07-16T07:56:22.003Z,4.30
2018-07-16T07:58:51.330Z,3.87
2018-07-16T08:01:20.585Z,4.00
2018-07-16T08:03:50.182Z,4.43
2018-07-16T08:06:20.436Z,5.27
2018-07-16T08:08:49.776Z,4.37
2018-07-16T08:11:19.327Z,4.70
2018-07-16T08:13:48.763Z,4.10
2018-07-16T08:16:18.526Z,3.87
2018-07-16T08:18:47.810Z,4.27
2018-07-16T08:21:17.257Z,4.20
2018-07-16T08:23:46.471Z,4.87
2018-07-16T08:26:15.828Z,6.63
2018-07-16T08:28:45.095Z,5.13
2018-07-16T08:31:14.331Z,4.20
2018-07-16T08:33:43.742Z,4.40
2018-07-16T08:36:13.135Z,4.10
2018-07-16T08:38:42.527Z,4.40
2018-07-16T08:41:11.946Z,4.10
2018-07-16T08:43:41.339Z,4.13
2018-07-16T08:46:10.809Z,4.37
2018-07-16T08:48:40.116Z,4.70
2018-07-16T08:51:09.438Z,4.20
2018-07-16T08:53:38.706Z,4.43
2018-07-16T08:56:08.062Z,4.20
2018-07-16T08:58:37.303Z,3.27
2018-07-16T09:01:06.683Z,6.23
2018-07-16T09:03:35.926Z,3.70
2018-07-16T09:06:06.249Z,3.17
2018-07-16T09:08:36.526Z,4.20
2018-07-16T09:11:06.049Z,5.47
2018-07-16T09:13:35.325Z,3.70
2018-07-16T09:16:04.720Z,4.57
2018-07-16T09:18:34.087Z,3.93
2018-07-16T09:21:03.516Z,3.53
2018-07-16T09:23:32.885Z,3.60
2018-07-16T09:26:02.178Z,3.37
2018-07-16T09:28:31.486Z,3.03
2018-07-16T09:31:00.719Z,3.47
2018-07-16T09:33:30.116Z,3.07
2018-07-16T09:35:59.524Z,3.27
2018-07-16T09:38:28.796Z,3.90
2018-07-16T09:40:58.242Z,4.53
2018-07-16T09:43:27.601Z,3.23
2018-07-16T09:45:56.829Z,3.40
2018-07-16T09:48:26.257Z,3.37
2018-07-16T09:50:55.518Z,3.10
2018-07-16T09:53:24.837Z,3.00
2018-07-16T09:55:54.214Z,3.50
2018-07-16T09:58:23.635Z,3.20
2018-07-16T10:00:58.130Z,3.40
2018-07-16T10:03:27.344Z,3.60
2018-07-16T10:05:56.763Z,2.90
2018-07-16T10:08:26.152Z,2.87
2018-07-16T10:10:55.419Z,3.07
2018-07-16T10:13:24.769Z,2.77
2018-07-16T10:15:54.142Z,4.07
2018-07-16T10:18:23.728Z,3.30
2018-07-16T10:20:53.259Z,3.27
2018-07-16T10:23:23.832Z,3.00
2018-07-16T10:25:53.368Z,3.27
2018-07-16T10:28:22.970Z,2.50
2018-07-16T10:30:52.164Z,2.97
2018-07-16T10:33:21.579Z,3.93
2018-07-16T10:35:50.809Z,3.50
2018-07-16T10:38:20.056Z,2.90
2018-07-16T10:40:49.822Z,2.53
2018-07-16T10:43:19.383Z,2.80
2018-07-16T10:45:49.039Z,3.03
2018-07-16T10:48:18.358Z,2.60
2018-07-16T10:50:47.528Z,2.93
2018-07-16T10:53:16.754Z,3.33
2018-07-16T10:55:46.021Z,4.50
2018-07-16T10:58:17.217Z,2.50
2018-07-16T11:00:47.505Z,3.00
2018-07-16T11:03:16.914Z,2.80
2018-07-16T11:05:46.179Z,2.90
2018-07-16T11:08:15.565Z,2.73
2018-07-16T11:10:45.048Z,2.97
2018-07-16T11:13:14.473Z,3.50
2018-07-16T11:15:43.816Z,2.53
2018-07-16T11:18:13.138Z,3.00
2018-07-16T11:20:42.294Z,2.73
2018-07-16T11:23:11.761Z,2.60
2018-07-16T11:25:41.214Z,2.40
2018-07-16T11:28:10.573Z,2.57
2018-07-16T11:30:39.730Z,3.03
2018-07-16T11:33:09.183Z,2.67
2018-07-16T11:35:38.572Z,2.57
2018-07-16T11:38:07.952Z,2.47
2018-07-16T11:40:37.326Z,2.47
2018-07-16T11:43:06.582Z,2.80
2018-07-16T11:45:35.848Z,2.40
2018-07-16T11:48:05.055Z,3.17
2018-07-16T11:50:34.223Z,2.90
2018-07-16T11:53:03.915Z,3.90
2018-07-16T11:55:33.382Z,2.20
2018-07-16T11:58:03.023Z,2.90
2018-07-16T12:00:32.234Z,2.30
2018-07-16T12:03:01.587Z,3.13
2018-07-16T12:05:31.258Z,2.63
2018-07-16T12:08:00.803Z,2.23
2018-07-16T12:10:30.170Z,2.40
2018-07-16T12:12:59.534Z,2.87
2018-07-16T12:15:28.886Z,4.10
2018-07-16T12:17:58.309Z,2.70
2018-07-16T12:20:27.509Z,2.53
2018-07-16T12:22:56.911Z,2.80
2018-07-16T12:25:26.156Z,3.47
2018-07-16T12:27:55.434Z,3.00
2018-07-16T12:30:25.242Z,4.70
2018-07-16T12:32:55.798Z,2.40
2018-07-16T12:35:25.612Z,3.03
2018-07-16T12:37:55.144Z,2.30
2018-07-16T12:40:24.614Z,2.50
2018-07-16T12:42:54.147Z,2.60
2018-07-16T12:45:23.739Z,3.43
2018-07-16T12:47:53.598Z,2.90
2018-07-16T12:50:23.157Z,3.80
2018-07-16T12:52:53.115Z,2.80
2018-07-16T12:55:22.940Z,2.63
2018-07-16T12:57:52.623Z,2.50
2018-07-16T13:00:22.097Z,2.50
2018-07-16T13:02:51.567Z,2.37
2018-07-16T13:05:20.991Z,2.67
2018-07-16T13:07:50.431Z,2.80
2018-07-16T13:10:19.805Z,3.03
2018-07-16T13:12:49.338Z,3.00
2018-07-16T13:15:18.656Z,3.03
2018-07-16T13:17:47.966Z,3.27
2018-07-16T13:20:17.244Z,3.27
2018-07-16T13:22:46.578Z,2.97
2018-07-16T13:25:15.954Z,2.80
2018-07-16T13:27:45.354Z,3.07
2018-07-16T13:30:14.627Z,3.00
2018-07-16T13:32:43.987Z,2.70
2018-07-16T13:35:13.373Z,3.00
2018-07-16T13:38:13.912Z,3.30
2018-07-16T13:40:43.354Z,2.93
2018-07-16T13:43:12.711Z,2.67
2018-07-16T13:45:41.971Z,3.00
2018-07-16T13:48:11.237Z,3.80
2018-07-16T13:50:40.661Z,2.73
2018-07-16T13:53:10.182Z,3.40
2018-07-16T13:55:39.796Z,3.00
2018-07-16T13:58:09.311Z,3.10
2018-07-16T14:00:38.882Z,2.97
2018-07-16T14:03:08.347Z,3.07
2018-07-16T14:05:37.915Z,3.17
2018-07-16T14:08:07.577Z,3.03
2018-07-16T14:10:37.125Z,2.90
2018-07-16T14:13:07.035Z,3.23
2018-07-16T14:15:36.261Z,2.70
2018-07-16T14:18:06.009Z,3.17
2018-07-16T14:20:35.469Z,2.60
2018-07-16T14:23:04.897Z,3.10
2018-07-16T14:25:34.654Z,2.97
2018-07-16T14:28:03.913Z,2.43
2018-07-16T14:30:33.203Z,2.50
2018-07-16T14:33:02.602Z,2.70
2018-07-16T14:35:32.030Z,5.57
2018-07-16T14:38:01.414Z,2.27
2018-07-16T14:40:30.734Z,3.30
2018-07-16T14:43:00.020Z,2.67
2018-07-16T14:45:29.330Z,3.23
2018-07-16T14:47:58.491Z,2.67
2018-07-16T14:50:27.720Z,2.60
2018-07-16T14:52:57.091Z,2.33
2018-07-16T14:55:26.434Z,2.10
2018-07-16T14:57:55.817Z,3.03
2018-07-16T15:00:26.403Z,2.60
2018-07-16T15:02:55.936Z,2.97
2018-07-16T15:05:25.383Z,4.30
2018-07-16T15:07:54.762Z,2.50
2018-07-16T15:10:24.158Z,2.60
2018-07-16T15:12:53.569Z,2.63
2018-07-16T15:15:23.110Z,2.50
2018-07-16T15:17:52.343Z,2.00
2018-07-16T15:20:21.781Z,2.30
2018-07-16T15:22:51.153Z,2.57
2018-07-16T15:25:20.719Z,2.90
2018-07-16T15:27:49.984Z,3.07
2018-07-16T15:30:19.401Z,3.60
2018-07-16T15:32:48.891Z,2.80
2018-07-16T15:35:18.211Z,2.80
2018-07-16T15:37:47.553Z,2.80
2018-07-16T15:40:16.584Z,2.67
2018-07-16T15:42:46.141Z,3.40
2018-07-16T15:45:15.158Z,2.33
2018-07-16T15:47:44.378Z,5.10
2018-07-16T15:50:13.837Z,2.53
2018-07-16T15:52:43.185Z,3.23
2018-07-16T15:55:12.499Z,3.50
2018-07-16T15:57:41.760Z,2.70
2018-07-16T16:00:11.625Z,2.70
2018-07-16T16:02:40.925Z,2.47
2018-07-16T16:05:10.315Z,2.70
2018-07-16T16:07:39.674Z,2.80
2018-07-16T16:10:08.910Z,2.10
2018-07-16T16:12:38.194Z,2.73
2018-07-16T16:15:07.535Z,2.30
2018-07-16T16:17:36.851Z,2.30
2018-07-16T16:20:06.481Z,3.07
2018-07-16T16:22:35.720Z,4.40
2018-07-16T16:25:05.032Z,2.57
2018-07-16T16:27:34.288Z,2.50
2018-07-16T16:30:03.624Z,2.20
2018-07-16T16:32:32.875Z,2.50
2018-07-16T16:35:02.123Z,2.70
2018-07-16T16:37:31.537Z,2.83
2018-07-16T16:40:00.817Z,2.80
2018-07-16T16:42:30.318Z,2.90
2018-07-16T16:44:59.655Z,5.37
2018-07-16T16:47:28.917Z,2.80
2018-07-16T16:49:59.420Z,2.33
2018-07-16T16:52:28.785Z,2.13
2018-07-16T16:54:58.165Z,2.17
2018-07-16T16:57:27.539Z,9.70
2018-07-16T16:59:56.894Z,3.87
2018-07-16T17:02:26.543Z,2.87
2018-07-16T17:04:55.907Z,2.47
2018-07-16T17:07:25.163Z,2.93
2018-07-16T17:09:54.511Z,2.40
2018-07-16T17:12:23.763Z,2.90
2018-07-16T17:14:53.083Z,3.37
2018-07-16T17:17:22.470Z,2.70
2018-07-16T17:19:51.805Z,2.70
2018-07-16T17:22:21.185Z,3.10
2018-07-16T17:24:50.542Z,2.83
2018-07-16T17:27:19.869Z,2.60
2018-07-16T17:29:49.208Z,2.87
2018-07-16T17:32:18.674Z,2.43
2018-07-16T17:34:48.056Z,2.57
2018-07-16T17:37:17.314Z,2.80
2018-07-16T17:39:46.634Z,2.20
2018-07-16T17:42:15.912Z,2.23
2018-07-16T17:44:45.246Z,2.40
2018-07-16T17:47:14.523Z,3.00
2018-07-16T17:49:44.485Z,2.23
2018-07-16T17:52:13.998Z,2.40
2018-07-16T17:54:43.583Z,2.70
2018-07-16T17:57:12.821Z,2.70
2018-07-16T17:59:42.164Z,2.83
2018-07-16T18:02:11.516Z,2.80
2018-07-16T18:04:40.944Z,3.70
2018-07-16T18:07:10.363Z,2.97
2018-07-16T18:09:39.746Z,2.50
2018-07-16T18:12:09.074Z,2.50
2018-07-16T18:14:38.332Z,2.60
2018-07-16T18:17:07.679Z,2.63
2018-07-16T18:19:37.254Z,3.30
2018-07-16T18:22:06.554Z,2.27
2018-07-16T18:24:35.842Z,2.87
2018-07-16T18:27:05.172Z,3.70
2018-07-16T18:29:34.433Z,3.70
2018-07-16T18:32:03.849Z,2.80
2018-07-16T18:34:33.131Z,2.73
2018-07-16T18:37:02.382Z,4.20
2018-07-16T18:39:31.631Z,2.43
2018-07-16T18:42:00.907Z,2.80
2018-07-16T18:44:30.155Z,2.77
2018-07-16T18:46:59.585Z,2.50
2018-07-16T18:49:28.963Z,2.20
2018-07-16T18:51:58.173Z,2.83
2018-07-16T18:54:27.539Z,3.73
2018-07-16T18:56:56.875Z,2.93
2018-07-16T18:59:26.260Z,3.00
2018-07-16T19:01:56.886Z,2.73
2018-07-16T19:04:26.214Z,2.70
2018-07-16T19:06:59.555Z,3.23
2018-07-16T19:09:28.838Z,3.17
2018-07-16T19:11:58.114Z,2.87
2018-07-16T19:14:27.495Z,2.80
2018-07-16T19:16:56.828Z,2.83
2018-07-16T19:19:26.293Z,3.60
2018-07-16T19:21:55.742Z,3.93
2018-07-16T19:24:25.092Z,3.07
2018-07-16T19:26:54.430Z,2.90
2018-07-16T19:29:23.694Z,3.13
2018-07-16T19:31:52.927Z,3.10
2018-07-16T19:34:22.198Z,3.10
2018-07-16T19:36:51.639Z,3.37
2018-07-16T19:39:21.414Z,2.57
2018-07-16T19:41:51.251Z,3.10
2018-07-16T19:44:20.542Z,3.00
2018-07-16T19:46:50.263Z,2.90
2018-07-16T19:49:19.646Z,2.90
2018-07-16T19:51:49.179Z,3.77
2018-07-16T19:54:18.552Z,3.50
2018-07-16T19:56:47.807Z,3.93
2018-07-16T19:59:17.144Z,3.33
2018-07-16T20:01:46.370Z,3.80
2018-07-16T20:04:15.652Z,3.30
2018-07-16T20:06:45.278Z,3.47
2018-07-16T20:09:14.652Z,3.30
2018-07-16T20:11:44.010Z,3.67
2018-07-16T20:14:13.261Z,3.07
2018-07-16T20:16:43.579Z,3.33
2018-07-16T20:19:13.142Z,3.20
2018-07-16T20:21:42.527Z,3.73
2018-07-16T20:24:11.776Z,3.80
2018-07-16T20:26:41.136Z,3.50
2018-07-16T20:29:10.361Z,3.70
2018-07-16T20:31:39.589Z,3.50
2018-07-16T20:34:08.815Z,3.37
2018-07-16T20:36:38.160Z,3.67
2018-07-16T20:39:10.175Z,3.80
2018-07-16T20:41:39.584Z,3.23
2018-07-16T20:44:08.834Z,3.37
2018-07-16T20:46:38.070Z,3.63
2018-07-16T20:49:07.466Z,3.43
2018-07-16T20:51:36.699Z,2.80
2018-07-16T20:54:05.942Z,3.30
2018-07-16T20:56:35.183Z,3.33
2018-07-16T20:59:04.426Z,3.50
2018-07-16T21:01:34.003Z,5.63
2018-07-16T21:04:03.256Z,3.10
2018-07-16T21:06:32.555Z,3.03
2018-07-16T21:09:01.849Z,2.87
2018-07-16T21:11:31.190Z,2.43
2018-07-16T21:14:00.610Z,3.30
2018-07-16T21:16:30.477Z,3.30
2018-07-16T21:18:59.815Z,3.60
2018-07-16T21:21:29.312Z,3.73
2018-07-16T21:23:58.517Z,3.90
2018-07-16T21:26:27.826Z,3.50
2018-07-16T21:28:57.186Z,3.40
2018-07-16T21:31:26.342Z,3.60
2018-07-16T21:33:55.899Z,3.20
2018-07-16T21:36:25.075Z,3.50
2018-07-16T21:38:58.622Z,3.57
2018-07-16T21:41:28.524Z,3.10
2018-07-16T21:43:57.770Z,3.53
2018-07-16T21:46:26.993Z,3.57
2018-07-16T21:48:56.337Z,3.57
2018-07-16T21:51:25.639Z,3.57
2018-07-16T21:53:55.037Z,3.50
2018-07-16T21:56:24.422Z,3.87
2018-07-16T21:58:53.622Z,3.53
2018-07-16T22:01:23.002Z,3.47
2018-07-16T22:03:52.161Z,3.77
2018-07-16T22:06:21.411Z,3.43
2018-07-16T22:08:50.771Z,4.37
2018-07-16T22:11:20.130Z,6.40
2018-07-16T22:13:49.531Z,3.53
2018-07-16T22:16:19.078Z,4.03
2018-07-16T22:18:48.359Z,4.67
2018-07-16T22:21:17.644Z,3.60
2018-07-16T22:23:47.056Z,5.17
2018-07-16T22:26:16.309Z,3.90
2018-07-16T22:28:45.579Z,4.03
2018-07-16T22:31:14.808Z,3.53
2018-07-16T22:33:44.036Z,4.27
2018-07-16T22:36:13.419Z,3.80
2018-07-16T22:38:42.666Z,3.80
2018-07-16T22:41:12.125Z,4.00
2018-07-16T22:43:41.352Z,3.60
2018-07-16T22:46:10.654Z,3.50
2018-07-16T22:48:40.077Z,3.73
2018-07-16T22:51:09.346Z,3.63
2018-07-16T22:53:38.762Z,3.70
2018-07-16T22:56:08.119Z,3.37
2018-07-16T22:58:37.463Z,3.63
2018-07-16T23:01:06.812Z,3.40
2018-07-16T23:03:36.169Z,4.10
2018-07-16T23:06:05.565Z,4.00
2018-07-16T23:08:34.884Z,3.60
2018-07-16T23:11:04.252Z,3.47
2018-07-16T23:13:33.591Z,3.07
2018-07-16T23:16:02.999Z,3.70
2018-07-16T23:18:32.368Z,3.20
2018-07-16T23:21:01.635Z,3.40
2018-07-16T23:23:31.098Z,3.70
2018-07-16T23:26:00.238Z,3.23
2018-07-16T23:28:29.552Z,4.37
2018-07-16T23:30:58.739Z,3.60
2018-07-16T23:33:28.090Z,3.73
2018-07-16T23:35:57.487Z,3.87
2018-07-16T23:38:26.909Z,3.80
2018-07-16T23:40:56.282Z,4.00
2018-07-16T23:43:25.602Z,3.43
2018-07-16T23:45:54.942Z,4.17
2018-07-16T23:48:24.187Z,5.70
2018-07-16T23:50:53.444Z,3.90
2018-07-16T23:53:22.707Z,3.37
2018-07-16T23:55:52.065Z,3.40
2018-07-16T23:58:21.370Z,4.37
